sensor_id;sensor_type;location;lat;lon;timestamp;pressure;altitude;pressure_sealevel;temperature;humidity
2549;BME280;1284;53.520;10.248;2023-01-28T00:01:37;102186.41;;;4.32;79.18
2549;BME280;1284;53.520;10.248;2023-01-28T00:04:03;102192.22;;;4.39;78.70
2549;BME280;1284;53.520;10.248;2023-01-28T00:06:29;102195.97;;;4.38;78.92
2549;BME280;1284;53.520;10.248;2023-01-28T00:08:54;102196.25;;;4.32;78.18
2549;BME280;1284;53.520;10.248;2023-01-28T00:11:20;102194.69;;;4.26;78.34
2549;BME280;1284;53.520;10.248;2023-01-28T00:13:50;102190.22;;;4.16;78.65
2549;BME280;1284;53.520;10.248;2023-01-28T00:19:02;102205.91;;;4.23;78.61
2549;BME280;1284;53.520;10.248;2023-01-28T00:21:28;102204.81;;;4.29;77.99
2549;BME280;1284;53.520;10.248;2023-01-28T00:23:54;102202.44;;;4.27;78.29
2549;BME280;1284;53.520;10.248;2023-01-28T00:26:21;102205.88;;;4.28;78.36
2549;BME280;1284;53.520;10.248;2023-01-28T00:28:47;102208.00;;;4.31;78.82
2549;BME280;1284;53.520;10.248;2023-01-28T00:31:19;102205.06;;;4.37;78.20
2549;BME280;1284;53.520;10.248;2023-01-28T00:33:46;102206.50;;;4.05;78.07
2549;BME280;1284;53.520;10.248;2023-01-28T00:36:13;102201.16;;;4.15;77.96
2549;BME280;1284;53.520;10.248;2023-01-28T00:38:40;102201.91;;;4.20;78.09
2549;BME280;1284;53.520;10.248;2023-01-28T00:41:14;102194.44;;;4.22;77.62
2549;BME280;1284;53.520;10.248;2023-01-28T00:43:41;102207.00;;;4.22;76.96
2549;BME280;1284;53.520;10.248;2023-01-28T00:46:09;102200.63;;;4.13;77.06
2549;BME280;1284;53.520;10.248;2023-01-28T00:48:35;102194.44;;;4.22;76.64
2549;BME280;1284;53.520;10.248;2023-01-28T00:51:02;102199.78;;;4.22;76.99
2549;BME280;1284;53.520;10.248;2023-01-28T00:53:28;102189.88;;;4.33;76.66
2549;BME280;1284;53.520;10.248;2023-01-28T00:55:53;102196.75;;;4.44;76.26
2549;BME280;1284;53.520;10.248;2023-01-28T00:58:19;102188.72;;;4.49;76.41
2549;BME280;1284;53.520;10.248;2023-01-28T01:00:45;102192.84;;;4.26;74.82
2549;BME280;1284;53.520;10.248;2023-01-28T01:03:11;102203.75;;;4.30;75.95
2549;BME280;1284;53.520;10.248;2023-01-28T01:05:36;102195.75;;;4.35;75.60
2549;BME280;1284;53.520;10.248;2023-01-28T01:08:02;102195.16;;;4.38;75.58
2549;BME280;1284;53.520;10.248;2023-01-28T01:10:28;102199.13;;;4.45;75.43
2549;BME280;1284;53.520;10.248;2023-01-28T01:12:53;102198.69;;;4.28;76.12
2549;BME280;1284;53.520;10.248;2023-01-28T01:15:20;102191.25;;;4.20;76.46
2549;BME280;1284;53.520;10.248;2023-01-28T01:17:47;102198.16;;;4.31;75.92
2549;BME280;1284;53.520;10.248;2023-01-28T01:20:19;102187.97;;;4.38;75.76
2549;BME280;1284;53.520;10.248;2023-01-28T01:22:44;102181.03;;;4.42;76.36
2549;BME280;1284;53.520;10.248;2023-01-28T01:25:11;102194.13;;;4.34;76.28
2549;BME280;1284;53.520;10.248;2023-01-28T01:27:37;102193.06;;;4.35;76.72
2549;BME280;1284;53.520;10.248;2023-01-28T01:30:03;102193.13;;;4.25;77.31
2549;BME280;1284;53.520;10.248;2023-01-28T01:32:30;102186.75;;;4.16;77.63
2549;BME280;1284;53.520;10.248;2023-01-28T01:34:56;102186.00;;;4.10;77.95
2549;BME280;1284;53.520;10.248;2023-01-28T01:37:23;102192.66;;;4.08;78.26
2549;BME280;1284;53.520;10.248;2023-01-28T01:39:49;102190.22;;;4.16;78.56
2549;BME280;1284;53.520;10.248;2023-01-28T01:42:14;102196.06;;;4.23;78.41
2549;BME280;1284;53.520;10.248;2023-01-28T01:50:47;102184.03;;;4.31;78.66
2549;BME280;1284;53.520;10.248;2023-01-28T01:53:16;102188.91;;;4.09;77.24
2549;BME280;1284;53.520;10.248;2023-01-28T01:55:46;102199.53;;;4.19;77.49
2549;BME280;1284;53.520;10.248;2023-01-28T01:58:15;102188.59;;;4.25;77.64
2549;BME280;1284;53.520;10.248;2023-01-28T02:00:41;102194.13;;;4.34;76.97
2549;BME280;1284;53.520;10.248;2023-01-28T02:03:09;102190.13;;;4.36;77.34
2549;BME280;1284;53.520;10.248;2023-01-28T02:05:35;102190.16;;;4.31;77.45
2549;BME280;1284;53.520;10.248;2023-01-28T02:08:01;102193.59;;;4.32;77.74
2549;BME280;1284;53.520;10.248;2023-01-28T02:11:08;102176.25;;;4.34;77.93
2549;BME280;1284;53.520;10.248;2023-01-28T02:13:38;102183.72;;;4.37;77.82
2549;BME280;1284;53.520;10.248;2023-01-28T02:16:06;102189.59;;;4.34;77.79
2549;BME280;1284;53.520;10.248;2023-01-28T02:18:32;102192.56;;;4.28;78.38
2549;BME280;1284;53.520;10.248;2023-01-28T02:26:54;102195.00;;;4.14;78.41
2549;BME280;1284;53.520;10.248;2023-01-28T02:34:37;102171.34;;;4.08;78.68
2549;BME280;1284;53.520;10.248;2023-01-28T02:40:13;102175.34;;;4.10;78.65
2549;BME280;1284;53.520;10.248;2023-01-28T02:42:40;102176.09;;;4.16;78.17
2549;BME280;1284;53.520;10.248;2023-01-28T02:45:23;102178.25;;;4.09;78.25
2549;BME280;1284;53.520;10.248;2023-01-28T02:47:50;102176.13;;;4.11;78.38
2549;BME280;1284;53.520;10.248;2023-01-28T02:50:26;102176.88;;;4.16;78.37
2549;BME280;1284;53.520;10.248;2023-01-28T02:53:25;102178.22;;;4.19;78.33
2549;BME280;1284;53.520;10.248;2023-01-28T02:56:23;102176.34;;;4.14;78.72
2549;BME280;1284;53.520;10.248;2023-01-28T02:59:02;102175.31;;;4.15;78.54
2549;BME280;1284;53.520;10.248;2023-01-28T03:04:49;102182.28;;;4.06;78.62
2549;BME280;1284;53.520;10.248;2023-01-28T03:07:22;102178.25;;;4.09;78.26
2549;BME280;1284;53.520;10.248;2023-01-28T03:09:48;102185.50;;;3.93;78.64
2549;BME280;1284;53.520;10.248;2023-01-28T03:12:26;102178.81;;;4.01;79.10
2549;BME280;1284;53.520;10.248;2023-01-28T03:15:15;102170.81;;;4.06;79.47
2549;BME280;1284;53.520;10.248;2023-01-28T03:18:03;102172.44;;;4.02;79.44
2549;BME280;1284;53.520;10.248;2023-01-28T03:21:01;102180.94;;;4.04;79.90
2549;BME280;1284;53.520;10.248;2023-01-28T03:26:43;102165.81;;;3.94;80.17
2549;BME280;1284;53.520;10.248;2023-01-28T03:29:30;102173.78;;;3.94;80.26
2549;BME280;1284;53.520;10.248;2023-01-28T03:32:18;102163.34;;;4.03;80.17
2549;BME280;1284;53.520;10.248;2023-01-28T03:35:05;102168.16;;;4.06;79.38
2549;BME280;1284;53.520;10.248;2023-01-28T03:37:50;102167.06;;;4.12;79.86
2549;BME280;1284;53.520;10.248;2023-01-28T03:40:20;102165.97;;;4.13;78.97
2549;BME280;1284;53.520;10.248;2023-01-28T03:42:46;102167.03;;;4.17;79.04
2549;BME280;1284;53.520;10.248;2023-01-28T03:45:44;102149.69;;;4.14;79.08
2549;BME280;1284;53.520;10.248;2023-01-28T03:48:11;102161.28;;;3.95;79.38
2549;BME280;1284;53.520;10.248;2023-01-28T03:50:38;102167.91;;;3.97;79.26
2549;BME280;1284;53.520;10.248;2023-01-28T03:53:04;102167.91;;;3.97;79.03
2549;BME280;1284;53.520;10.248;2023-01-28T03:55:46;102174.00;;;4.03;78.94
2549;BME280;1284;53.520;10.248;2023-01-28T03:58:12;102179.34;;;4.03;78.52
2549;BME280;1284;53.520;10.248;2023-01-28T04:00:38;102181.78;;;3.89;78.96
2549;BME280;1284;53.520;10.248;2023-01-28T04:03:08;102178.59;;;3.92;79.51
2549;BME280;1284;53.520;10.248;2023-01-28T04:05:59;102183.38;;;4.00;79.41
2549;BME280;1284;53.520;10.248;2023-01-28T04:08:33;102178.28;;;4.04;79.11
2549;BME280;1284;53.520;10.248;2023-01-28T04:11:26;102185.75;;;4.02;79.44
2549;BME280;1284;53.520;10.248;2023-01-28T04:13:52;102175.66;;;3.99;79.90
2549;BME280;1284;53.520;10.248;2023-01-28T04:16:18;102180.50;;;3.87;79.73
2549;BME280;1284;53.520;10.248;2023-01-28T04:18:45;102184.75;;;3.78;79.87
2549;BME280;1284;53.520;10.248;2023-01-28T04:21:11;102186.91;;;3.81;80.09
2549;BME280;1284;53.520;10.248;2023-01-28T04:23:37;102169.06;;;3.81;79.94
2549;BME280;1284;53.520;10.248;2023-01-28T04:26:04;102178.34;;;3.84;79.50
2549;BME280;1284;53.520;10.248;2023-01-28T04:28:30;102177.53;;;3.88;79.13
2549;BME280;1284;53.520;10.248;2023-01-28T04:30:56;102164.81;;;3.70;79.55
2549;BME280;1284;53.520;10.248;2023-01-28T04:33:42;102164.28;;;3.68;79.71
2549;BME280;1284;53.520;10.248;2023-01-28T04:36:30;102159.50;;;3.65;79.47
2549;BME280;1284;53.520;10.248;2023-01-28T04:39:20;102167.19;;;3.77;78.96
2549;BME280;1284;53.520;10.248;2023-01-28T04:42:04;102172.78;;;3.70;78.65
2549;BME280;1284;53.520;10.248;2023-01-28T04:44:47;102161.34;;;3.75;78.88
2549;BME280;1284;53.520;10.248;2023-01-28T04:50:29;102162.16;;;3.75;79.57
2549;BME280;1284;53.520;10.248;2023-01-28T04:53:07;102178.91;;;3.76;79.52
2549;BME280;1284;53.520;10.248;2023-01-28T04:55:38;102170.91;;;3.76;79.50
2549;BME280;1284;53.520;10.248;2023-01-28T04:58:04;102167.72;;;3.74;80.01
2549;BME280;1284;53.520;10.248;2023-01-28T05:00:31;102172.81;;;3.75;80.09
2549;BME280;1284;53.520;10.248;2023-01-28T05:02:57;102168.00;;;3.77;79.88
2549;BME280;1284;53.520;10.248;2023-01-28T05:05:23;102177.06;;;3.71;80.04
2549;BME280;1284;53.520;10.248;2023-01-28T05:07:56;102173.34;;;3.67;80.44
2549;BME280;1284;53.520;10.248;2023-01-28T05:10:23;102170.94;;;3.71;80.72
2549;BME280;1284;53.520;10.248;2023-01-28T05:15:37;102169.84;;;3.77;80.61
2549;BME280;1284;53.520;10.248;2023-01-28T05:18:02;102165.63;;;3.71;80.02
2549;BME280;1284;53.520;10.248;2023-01-28T05:20:34;102164.56;;;3.66;80.23
2549;BME280;1284;53.520;10.248;2023-01-28T05:25:52;102165.09;;;3.58;79.74
2549;BME280;1284;53.520;10.248;2023-01-28T05:28:18;102159.81;;;3.43;80.37
2549;BME280;1284;53.520;10.248;2023-01-28T05:30:43;102156.13;;;3.34;80.16
2549;BME280;1284;53.520;10.248;2023-01-28T05:33:09;102153.47;;;3.34;80.54
2549;BME280;1284;53.520;10.248;2023-01-28T05:35:34;102156.09;;;3.39;79.91
2549;BME280;1284;53.520;10.248;2023-01-28T05:38:01;102144.91;;;3.47;79.71
2549;BME280;1284;53.520;10.248;2023-01-28T05:42:52;102134.28;;;3.32;79.04
2549;BME280;1284;53.520;10.248;2023-01-28T05:45:22;102127.91;;;3.23;78.98
2549;BME280;1284;53.520;10.248;2023-01-28T05:48:13;102131.66;;;3.22;78.82
2549;BME280;1284;53.520;10.248;2023-01-28T05:50:56;102134.59;;;3.21;78.64
2549;BME280;1284;53.520;10.248;2023-01-28T05:53:32;102130.59;;;3.13;78.55
2549;BME280;1284;53.520;10.248;2023-01-28T05:55:57;102128.47;;;3.10;78.85
2549;BME280;1284;53.520;10.248;2023-01-28T06:00:53;102138.34;;;3.00;79.15
2549;BME280;1284;53.520;10.248;2023-01-28T06:03:25;102140.19;;;2.99;79.23
2549;BME280;1284;53.520;10.248;2023-01-28T06:05:50;102155.63;;;2.97;79.78
2549;BME280;1284;53.520;10.248;2023-01-28T06:08:16;102156.41;;;2.78;80.96
2549;BME280;1284;53.520;10.248;2023-01-28T06:10:41;102150.56;;;2.75;81.64
2549;BME280;1284;53.520;10.248;2023-01-28T06:13:07;102134.63;;;2.81;81.54
2549;BME280;1284;53.520;10.248;2023-01-28T06:15:50;102130.09;;;2.76;81.99
2549;BME280;1284;53.520;10.248;2023-01-28T06:18:36;102140.19;;;2.89;81.88
2549;BME280;1284;53.520;10.248;2023-01-28T06:21:02;102140.72;;;2.91;81.08
2549;BME280;1284;53.520;10.248;2023-01-28T06:23:27;102139.41;;;2.94;80.83
2549;BME280;1284;53.520;10.248;2023-01-28T06:25:56;102135.41;;;2.91;80.90
2549;BME280;1284;53.520;10.248;2023-01-28T06:28:24;102145.50;;;2.74;81.63
2549;BME280;1284;53.520;10.248;2023-01-28T06:30:51;102142.84;;;2.64;82.35
2549;BME280;1284;53.520;10.248;2023-01-28T06:33:18;102136.75;;;2.68;82.38
2549;BME280;1284;53.520;10.248;2023-01-28T06:35:44;102140.19;;;2.64;81.87
2549;BME280;1284;53.520;10.248;2023-01-28T06:38:10;102139.91;;;2.75;81.66
2549;BME280;1284;53.520;10.248;2023-01-28T06:40:36;102148.19;;;2.69;81.58
2549;BME280;1284;53.520;10.248;2023-01-28T06:43:02;102144.97;;;2.72;81.88
2549;BME280;1284;53.520;10.248;2023-01-28T06:45:28;102139.13;;;2.75;81.56
2549;BME280;1284;53.520;10.248;2023-01-28T06:47:53;102136.44;;;2.75;81.33
2549;BME280;1284;53.520;10.248;2023-01-28T06:50:19;102135.69;;;2.74;81.02
2549;BME280;1284;53.520;10.248;2023-01-28T06:52:44;102137.25;;;2.65;81.25
2549;BME280;1284;53.520;10.248;2023-01-28T06:55:10;102133.53;;;2.66;81.18
2549;BME280;1284;53.520;10.248;2023-01-28T06:57:39;102130.06;;;2.66;81.23
2549;BME280;1284;53.520;10.248;2023-01-28T07:00:07;102130.06;;;2.66;81.06
2549;BME280;1284;53.520;10.248;2023-01-28T07:02:34;102134.06;;;2.63;80.90
2549;BME280;1284;53.520;10.248;2023-01-28T07:04:59;102146.56;;;2.63;80.70
2549;BME280;1284;53.520;10.248;2023-01-28T07:07:25;102155.56;;;2.52;80.82
2549;BME280;1284;53.520;10.248;2023-01-28T07:09:50;102163.56;;;2.52;81.02
2549;BME280;1284;53.520;10.248;2023-01-28T07:12:16;102172.59;;;2.51;80.97
2549;BME280;1284;53.520;10.248;2023-01-28T07:14:41;102182.69;;;2.49;81.24
2549;BME280;1284;53.520;10.248;2023-01-28T07:17:07;102170.44;;;2.43;81.47
2549;BME280;1284;53.520;10.248;2023-01-28T07:19:32;102177.63;;;2.37;82.03
2549;BME280;1284;53.520;10.248;2023-01-28T07:21:57;102187.22;;;2.43;81.82
2549;BME280;1284;53.520;10.248;2023-01-28T07:24:25;102194.09;;;2.39;81.83
2549;BME280;1284;53.520;10.248;2023-01-28T07:26:53;102189.84;;;2.38;82.11
2549;BME280;1284;53.520;10.248;2023-01-28T07:29:19;102201.81;;;2.41;82.33
2549;BME280;1284;53.520;10.248;2023-01-28T07:31:44;102206.06;;;2.42;81.95
2549;BME280;1284;53.520;10.248;2023-01-28T07:34:10;102206.06;;;2.47;81.93
2549;BME280;1284;53.520;10.248;2023-01-28T07:36:35;102206.63;;;2.49;82.48
2549;BME280;1284;53.520;10.248;2023-01-28T07:39:01;102210.09;;;2.54;82.34
2549;BME280;1284;53.520;10.248;2023-01-28T07:41:27;102213.81;;;2.58;82.78
2549;BME280;1284;53.520;10.248;2023-01-28T07:43:53;102219.41;;;2.62;82.53
2549;BME280;1284;53.520;10.248;2023-01-28T07:46:18;102205.31;;;2.61;82.60
2549;BME280;1284;53.520;10.248;2023-01-28T07:48:44;102212.00;;;2.69;82.21
2549;BME280;1284;53.520;10.248;2023-01-28T07:51:10;102202.13;;;2.64;82.14
2549;BME280;1284;53.520;10.248;2023-01-28T07:53:35;102210.63;;;2.61;82.25
2549;BME280;1284;53.520;10.248;2023-01-28T07:56:01;102218.63;;;2.66;81.96
2549;BME280;1284;53.520;10.248;2023-01-28T07:58:27;102218.91;;;2.65;81.68
2549;BME280;1284;53.520;10.248;2023-01-28T08:00:57;102208.19;;;2.50;81.88
2549;BME280;1284;53.520;10.248;2023-01-28T08:03:23;102213.81;;;2.53;81.97
2549;BME280;1284;53.520;10.248;2023-01-28T08:05:50;102225.72;;;2.41;81.85
2549;BME280;1284;53.520;10.248;2023-01-28T08:08:17;102219.88;;;2.34;82.63
2549;BME280;1284;53.520;10.248;2023-01-28T08:10:43;102228.69;;;2.54;82.61
2549;BME280;1284;53.520;10.248;2023-01-28T08:13:10;102230.56;;;2.64;82.22
2549;BME280;1284;53.520;10.248;2023-01-28T08:15:36;102240.69;;;2.67;81.99
2549;BME280;1284;53.520;10.248;2023-01-28T08:18:02;102227.09;;;2.58;82.22
2549;BME280;1284;53.520;10.248;2023-01-28T08:20:28;102230.53;;;2.54;82.45
2549;BME280;1284;53.520;10.248;2023-01-28T08:23:16;102235.88;;;2.59;82.59
2549;BME280;1284;53.520;10.248;2023-01-28T08:25:43;102243.38;;;2.72;82.13
2549;BME280;1284;53.520;10.248;2023-01-28T08:28:09;102238.03;;;2.77;81.75
2549;BME280;1284;53.520;10.248;2023-01-28T08:30:36;102233.25;;;2.74;81.70
2549;BME280;1284;53.520;10.248;2023-01-28T08:33:05;102234.59;;;2.77;81.58
2549;BME280;1284;53.520;10.248;2023-01-28T08:35:32;102240.16;;;2.70;82.14
2549;BME280;1284;53.520;10.248;2023-01-28T08:37:59;102240.94;;;2.65;82.42
2549;BME280;1284;53.520;10.248;2023-01-28T08:40:25;102233.25;;;2.79;83.07
2549;BME280;1284;53.520;10.248;2023-01-28T08:42:52;102242.59;;;2.97;82.66
2549;BME280;1284;53.520;10.248;2023-01-28T08:45:19;102246.88;;;3.08;82.73
2549;BME280;1284;53.520;10.248;2023-01-28T08:47:54;102247.69;;;3.13;82.68
2549;BME280;1284;53.520;10.248;2023-01-28T08:50:20;102251.94;;;3.14;82.39
2549;BME280;1284;53.520;10.248;2023-01-28T08:52:47;102235.44;;;3.27;82.12
2549;BME280;1284;53.520;10.248;2023-01-28T08:55:14;102232.75;;;3.37;81.88
2549;BME280;1284;53.520;10.248;2023-01-28T08:57:40;102239.97;;;3.52;81.69
2549;BME280;1284;53.520;10.248;2023-01-28T09:00:07;102248.97;;;3.81;81.17
2549;BME280;1284;53.520;10.248;2023-01-28T09:02:35;102239.88;;;3.87;79.79
2549;BME280;1284;53.520;10.248;2023-01-28T09:05:01;102240.16;;;3.91;79.82
2549;BME280;1284;53.520;10.248;2023-01-28T09:07:27;102260.63;;;4.05;79.05
2549;BME280;1284;53.520;10.248;2023-01-28T09:09:52;102267.50;;;4.21;78.57
2549;BME280;1284;53.520;10.248;2023-01-28T09:12:18;102281.78;;;4.50;76.92
2549;BME280;1284;53.520;10.248;2023-01-28T09:14:43;102287.34;;;4.64;76.05
2549;BME280;1284;53.520;10.248;2023-01-28T09:17:08;102286.19;;;4.75;74.88
2549;BME280;1284;53.520;10.248;2023-01-28T09:19:37;102271.28;;;4.69;74.64
2549;BME280;1284;53.520;10.248;2023-01-28T09:22:03;102290.94;;;4.88;73.70
2549;BME280;1284;53.520;10.248;2023-01-28T09:24:29;102291.06;;;4.63;73.01
2549;BME280;1284;53.520;10.248;2023-01-28T09:26:54;102297.47;;;4.57;73.29
2549;BME280;1284;53.520;10.248;2023-01-28T09:29:19;102300.47;;;4.50;73.53
2549;BME280;1284;53.520;10.248;2023-01-28T09:31:45;102299.78;;;4.15;74.90
2549;BME280;1284;53.520;10.248;2023-01-28T09:34:10;102292.59;;;4.15;75.10
2549;BME280;1284;53.520;10.248;2023-01-28T09:36:36;102297.13;;;4.10;74.94
2549;BME280;1284;53.520;10.248;2023-01-28T09:39:02;102308.31;;;4.12;75.09
2549;BME280;1284;53.520;10.248;2023-01-28T09:41:56;102313.69;;;3.87;75.09
2549;BME280;1284;53.520;10.248;2023-01-28T09:47:33;102315.53;;;3.91;76.08
2549;BME280;1284;53.520;10.248;2023-01-28T09:50:04;102307.00;;;4.04;76.28
2549;BME280;1284;53.520;10.248;2023-01-28T09:52:34;102322.16;;;4.19;75.52
2549;BME280;1284;53.520;10.248;2023-01-28T09:55:30;102320.72;;;4.51;74.60
2549;BME280;1284;53.520;10.248;2023-01-28T09:57:52;102319.09;;;4.61;73.46
2549;BME280;1284;53.520;10.248;2023-01-28T10:00:32;102294.97;;;4.86;72.51
2549;BME280;1284;53.520;10.248;2023-01-28T10:17:11;102270.63;;;5.31;68.22
2549;BME280;1284;53.520;10.248;2023-01-28T10:19:42;102274.91;;;5.61;68.43
2549;BME280;1284;53.520;10.248;2023-01-28T10:22:23;102256.78;;;5.81;66.89
2549;BME280;1284;53.520;10.248;2023-01-28T10:24:56;102252.47;;;5.90;66.39
2549;BME280;1284;53.520;10.248;2023-01-28T10:27:31;102268.59;;;5.80;66.42
2549;BME280;1284;53.520;10.248;2023-01-28T10:29:59;102259.72;;;6.13;64.44
2549;BME280;1284;53.520;10.248;2023-01-28T10:32:33;102259.72;;;5.85;65.78
2549;BME280;1284;53.520;10.248;2023-01-28T10:35:00;102243.44;;;5.81;66.26
2549;BME280;1284;53.520;10.248;2023-01-28T10:37:28;102243.31;;;6.20;64.60
2549;BME280;1284;53.520;10.248;2023-01-28T10:39:57;102247.25;;;6.04;64.55
2549;BME280;1284;53.520;10.248;2023-01-28T10:42:35;102242.50;;;5.67;66.13
2549;BME280;1284;53.520;10.248;2023-01-28T10:45:22;102232.63;;;5.68;65.22
2549;BME280;1284;53.520;10.248;2023-01-28T10:47:53;102240.84;;;5.47;66.06
2549;BME280;1284;53.520;10.248;2023-01-28T10:50:26;102230.00;;;5.63;65.25
2549;BME280;1284;53.520;10.248;2023-01-28T10:53:03;102238.09;;;5.81;65.02
2549;BME280;1284;53.520;10.248;2023-01-28T10:55:35;102222.50;;;5.93;62.92
2549;BME280;1284;53.520;10.248;2023-01-28T10:58:03;102217.50;;;5.82;63.67
2549;BME280;1284;53.520;10.248;2023-01-28T11:00:38;102208.63;;;5.63;64.26
2549;BME280;1284;53.520;10.248;2023-01-28T11:03:04;102187.09;;;5.78;63.00
2549;BME280;1284;53.520;10.248;2023-01-28T11:05:30;102175.56;;;5.82;62.29
2549;BME280;1284;53.520;10.248;2023-01-28T11:08:12;102174.13;;;5.66;64.32
2549;BME280;1284;53.520;10.248;2023-01-28T11:10:39;102179.22;;;5.91;63.67
2549;BME280;1284;53.520;10.248;2023-01-28T11:13:14;102188.28;;;6.14;62.39
2549;BME280;1284;53.520;10.248;2023-01-28T11:15:48;102176.91;;;5.56;65.74
2549;BME280;1284;53.520;10.248;2023-01-28T11:18:17;102166.63;;;5.68;63.57
2549;BME280;1284;53.520;10.248;2023-01-28T11:20:51;102178.25;;;5.77;63.98
2549;BME280;1284;53.520;10.248;2023-01-28T11:23:30;102182.84;;;5.77;62.67
2549;BME280;1284;53.520;10.248;2023-01-28T11:26:17;102187.59;;;5.80;63.92
2549;BME280;1284;53.520;10.248;2023-01-28T11:28:44;102174.75;;;5.82;64.04
2549;BME280;1284;53.520;10.248;2023-01-28T11:31:15;102170.38;;;5.91;63.53
2549;BME280;1284;53.520;10.248;2023-01-28T11:33:46;102153.09;;;6.07;62.77
2549;BME280;1284;53.520;10.248;2023-01-28T11:36:20;102151.78;;;6.04;62.67
2549;BME280;1284;53.520;10.248;2023-01-28T11:38:51;102144.56;;;6.05;62.71
2549;BME280;1284;53.520;10.248;2023-01-28T11:41:18;102121.53;;;5.85;62.79
2549;BME280;1284;53.520;10.248;2023-01-28T11:43:50;102119.25;;;5.74;63.34
2549;BME280;1284;53.520;10.248;2023-01-28T11:49:15;102139.38;;;5.66;63.67
2549;BME280;1284;53.520;10.248;2023-01-28T11:52:09;102135.84;;;5.94;62.50
2549;BME280;1284;53.520;10.248;2023-01-28T11:57:22;102147.56;;;5.98;62.68
2549;BME280;1284;53.520;10.248;2023-01-28T12:08:20;102126.78;;;5.95;62.72
2549;BME280;1284;53.520;10.248;2023-01-28T12:11:01;102122.34;;;5.86;64.84
2549;BME280;1284;53.520;10.248;2023-01-28T12:16:17;102127.66;;;6.09;64.35
2549;BME280;1284;53.520;10.248;2023-01-28T12:19:04;102121.94;;;6.16;64.42
2549;BME280;1284;53.520;10.248;2023-01-28T12:26:52;102114.38;;;6.23;62.64
2549;BME280;1284;53.520;10.248;2023-01-28T12:29:32;102115.53;;;6.17;62.26
2549;BME280;1284;53.520;10.248;2023-01-28T12:40:22;102107.63;;;6.07;64.63
2549;BME280;1284;53.520;10.248;2023-01-28T12:43:00;102096.16;;;6.25;63.39
2549;BME280;1284;53.520;10.248;2023-01-28T12:45:34;102101.56;;;6.20;63.99
2549;BME280;1284;53.520;10.248;2023-01-28T12:48:14;102090.88;;;6.20;63.49
2549;BME280;1284;53.520;10.248;2023-01-28T12:50:45;102091.13;;;6.37;63.05
2549;BME280;1284;53.520;10.248;2023-01-28T12:53:20;102098.66;;;6.16;64.87
2549;BME280;1284;53.520;10.248;2023-01-28T12:55:52;102097.22;;;6.24;65.63
2549;BME280;1284;53.520;10.248;2023-01-28T12:58:33;102092.28;;;6.50;63.64
2549;BME280;1284;53.520;10.248;2023-01-28T13:01:06;102076.09;;;6.41;63.77
2549;BME280;1284;53.520;10.248;2023-01-28T13:03:44;102062.81;;;6.68;63.24
2549;BME280;1284;53.520;10.248;2023-01-28T13:08:43;102060.94;;;6.69;63.84
2549;BME280;1284;53.520;10.248;2023-01-28T13:11:14;102070.28;;;6.71;63.42
2549;BME280;1284;53.520;10.248;2023-01-28T13:16:27;102054.53;;;6.51;66.56
2549;BME280;1284;53.520;10.248;2023-01-28T13:19:04;102053.50;;;6.66;65.48
2549;BME280;1284;53.520;10.248;2023-01-28T13:21:33;102050.44;;;6.72;64.83
2549;BME280;1284;53.520;10.248;2023-01-28T13:24:17;102046.44;;;6.70;64.03
2549;BME280;1284;53.520;10.248;2023-01-28T13:26:45;102046.84;;;6.63;64.68
2549;BME280;1284;53.520;10.248;2023-01-28T13:31:48;102039.25;;;6.84;64.94
2549;BME280;1284;53.520;10.248;2023-01-28T13:37:01;102046.75;;;7.14;64.61
2549;BME280;1284;53.520;10.248;2023-01-28T13:39:28;102055.16;;;7.07;63.72
2549;BME280;1284;53.520;10.248;2023-01-28T13:42:09;102058.47;;;7.18;64.25
2549;BME280;1284;53.520;10.248;2023-01-28T13:44:37;102064.22;;;7.39;62.59
2549;BME280;1284;53.520;10.248;2023-01-28T13:49:32;102073.13;;;7.34;63.89
2549;BME280;1284;53.520;10.248;2023-01-28T13:52:14;102067.56;;;7.17;64.73
2549;BME280;1284;53.520;10.248;2023-01-28T13:55:33;102086.44;;;7.25;64.54
2549;BME280;1284;53.520;10.248;2023-01-28T14:19:57;102088.56;;;6.96;66.20
2549;BME280;1284;53.520;10.248;2023-01-28T14:22:23;102078.75;;;6.92;66.17
2549;BME280;1284;53.520;10.248;2023-01-28T14:24:49;102077.44;;;6.89;66.35
2549;BME280;1284;53.520;10.248;2023-01-28T14:27:25;102078.44;;;6.93;65.94
2549;BME280;1284;53.520;10.248;2023-01-28T14:32:30;102079.66;;;6.69;67.81
2549;BME280;1284;53.520;10.248;2023-01-28T14:34:59;102078.75;;;6.60;67.66
2549;BME280;1284;53.520;10.248;2023-01-28T14:37:31;102079.16;;;6.67;68.25
2549;BME280;1284;53.520;10.248;2023-01-28T14:40:02;102067.75;;;6.61;68.32
2549;BME280;1284;53.520;10.248;2023-01-28T14:42:34;102071.25;;;6.43;69.11
2549;BME280;1284;53.520;10.248;2023-01-28T14:45:31;102067.00;;;6.23;71.29
2549;BME280;1284;53.520;10.248;2023-01-28T14:56:39;102091.56;;;6.25;71.26
2549;BME280;1284;53.520;10.248;2023-01-28T14:59:21;102097.53;;;6.22;71.41
2549;BME280;1284;53.520;10.248;2023-01-28T15:01:54;102095.34;;;6.24;70.88
2549;BME280;1284;53.520;10.248;2023-01-28T15:04:29;102104.19;;;6.25;71.63
2549;BME280;1284;53.520;10.248;2023-01-28T15:06:56;102104.44;;;6.05;72.33
2549;BME280;1284;53.520;10.248;2023-01-28T15:09:25;102110.50;;;5.92;72.69
2549;BME280;1284;53.520;10.248;2023-01-28T15:11:53;102114.84;;;5.88;73.10
2549;BME280;1284;53.520;10.248;2023-01-28T15:14:26;102119.78;;;5.99;73.00
2549;BME280;1284;53.520;10.248;2023-01-28T15:16:53;102123.47;;;5.80;73.58
2549;BME280;1284;53.520;10.248;2023-01-28T15:19:25;102124.50;;;5.84;74.34
2549;BME280;1284;53.520;10.248;2023-01-28T15:21:54;102118.44;;;5.97;74.43
2549;BME280;1284;53.520;10.248;2023-01-28T15:24:20;102120.41;;;6.10;73.99
2549;BME280;1284;53.520;10.248;2023-01-28T15:26:46;102111.75;;;6.18;72.68
2549;BME280;1284;53.520;10.248;2023-01-28T15:31:57;102105.56;;;6.04;72.63
2549;BME280;1284;53.520;10.248;2023-01-28T15:34:23;102101.13;;;6.13;72.32
2549;BME280;1284;53.520;10.248;2023-01-28T15:36:55;102088.41;;;6.23;71.70
2549;BME280;1284;53.520;10.248;2023-01-28T15:39:23;102073.66;;;6.26;71.96
2549;BME280;1284;53.520;10.248;2023-01-28T15:42:01;102066.28;;;6.18;72.19
2549;BME280;1284;53.520;10.248;2023-01-28T15:44:31;102070.47;;;6.24;71.92
2549;BME280;1284;53.520;10.248;2023-01-28T15:47:03;102085.09;;;6.13;70.97
2549;BME280;1284;53.520;10.248;2023-01-28T15:49:36;102096.13;;;6.06;72.36